createdAt,value
2018-07-30T00:01:44.609Z,36.40
2018-07-30T00:04:12.484Z,36.60
2018-07-30T00:06:40.130Z,36.60
2018-07-30T00:09:08.604Z,36.70
2018-07-30T00:11:36.432Z,36.80
2018-07-30T00:16:31.800Z,37.00
2018-07-30T00:18:59.498Z,37.10
2018-07-30T00:21:27.455Z,37.10
2018-07-30T00:23:55.160Z,37.20
2018-07-30T00:28:50.724Z,37.40
2018-07-30T00:31:18.508Z,37.40
2018-07-30T00:33:46.117Z,37.40
2018-07-30T00:36:16.149Z,37.50
2018-07-30T00:38:43.784Z,37.60
2018-07-30T00:41:11.558Z,37.60
2018-07-30T00:43:39.200Z,37.70
2018-07-30T00:46:07.246Z,37.80
2018-07-30T00:51:02.532Z,37.90
2018-07-30T00:53:30.757Z,37.80
2018-07-30T00:55:58.401Z,37.90
2018-07-30T00:58:25.977Z,37.90
2018-07-30T01:00:53.920Z,38.00
2018-07-30T01:03:21.549Z,38.10
2018-07-30T01:05:49.117Z,38.10
2018-07-30T01:08:17.076Z,38.20
2018-07-30T01:13:12.364Z,38.20
2018-07-30T01:15:40.211Z,38.30
2018-07-30T01:18:07.880Z,38.50
2018-07-30T01:20:36.017Z,38.60
2018-07-30T01:25:31.440Z,38.70
2018-07-30T01:27:59.344Z,38.70
2018-07-30T01:30:27.413Z,38.70
2018-07-30T01:35:22.721Z,38.70
2018-07-30T01:37:50.883Z,39.20
2018-07-30T01:40:18.500Z,38.70
2018-07-30T01:45:13.951Z,38.70
2018-07-30T01:47:41.535Z,38.70
2018-07-30T01:50:09.141Z,38.70
2018-07-30T01:52:36.900Z,38.70
2018-07-30T01:55:04.528Z,39.20
2018-07-30T01:57:32.157Z,38.80
2018-07-30T02:00:00.152Z,38.90
2018-07-30T02:02:27.978Z,39.30
2018-07-30T02:04:58.308Z,39.00
2018-07-30T02:07:26.413Z,39.10
2018-07-30T02:12:22.180Z,39.30
2018-07-30T02:14:50.022Z,39.30
2018-07-30T02:17:17.674Z,39.40
2018-07-30T02:19:45.254Z,39.70
2018-07-30T02:22:12.917Z,39.50
2018-07-30T02:24:40.715Z,39.60
2018-07-30T02:27:08.297Z,39.60
2018-07-30T02:29:35.952Z,39.70
2018-07-30T02:32:03.914Z,39.70
2018-07-30T02:36:59.294Z,39.70
2018-07-30T02:39:26.957Z,39.80
2018-07-30T02:41:54.686Z,39.80
2018-07-30T02:46:52.110Z,39.90
2018-07-30T02:49:20.095Z,39.90
2018-07-30T02:51:47.745Z,39.90
2018-07-30T02:54:15.331Z,39.90
2018-07-30T02:56:42.993Z,39.90
2018-07-30T02:59:10.375Z,39.90
2018-07-30T03:01:38.061Z,40.00
2018-07-30T03:04:05.928Z,40.10
2018-07-30T03:06:33.580Z,40.20
2018-07-30T03:09:01.225Z,40.90
2018-07-30T03:11:28.905Z,40.20
2018-07-30T03:13:56.523Z,40.20
2018-07-30T03:16:24.088Z,40.30
2018-07-30T03:18:51.861Z,40.30
2018-07-30T03:21:19.481Z,40.30
2018-07-30T03:23:47.139Z,40.30
2018-07-30T03:26:14.917Z,40.30
2018-07-30T03:28:42.493Z,40.30
2018-07-30T03:33:38.133Z,40.40
2018-07-30T03:36:06.065Z,40.70
2018-07-30T03:38:33.689Z,40.60
2018-07-30T03:43:29.149Z,40.70
2018-07-30T03:45:56.749Z,40.80
2018-07-30T03:48:24.969Z,40.80
2018-07-30T03:53:20.616Z,40.90
2018-07-30T03:55:48.897Z,40.90
2018-07-30T04:00:44.434Z,41.00
2018-07-30T04:03:12.331Z,41.20
2018-07-30T04:05:40.235Z,41.20
2018-07-30T04:08:07.837Z,41.30
2018-07-30T04:13:03.133Z,41.30
2018-07-30T04:15:30.806Z,41.40
2018-07-30T04:17:58.819Z,41.50
2018-07-30T04:20:26.413Z,41.50
2018-07-30T04:22:54.050Z,41.60
2018-07-30T04:25:22.022Z,41.60
2018-07-30T04:30:17.648Z,41.70
2018-07-30T04:32:45.409Z,41.70
2018-07-30T04:35:12.985Z,41.70
2018-07-30T04:37:40.605Z,41.80
2018-07-30T04:40:08.298Z,41.70
2018-07-30T04:42:35.924Z,41.80
2018-07-30T04:45:03.592Z,41.90
2018-07-30T04:47:31.271Z,42.00
2018-07-30T04:49:58.915Z,42.10
2018-07-30T04:52:26.738Z,42.10
2018-07-30T04:54:54.416Z,42.10
2018-07-30T04:57:22.044Z,42.20
2018-07-30T04:59:49.846Z,42.20
2018-07-30T05:02:17.855Z,42.20
2018-07-30T05:04:45.572Z,42.20
2018-07-30T05:07:13.249Z,42.20
2018-07-30T05:09:40.978Z,42.10
2018-07-30T05:12:08.589Z,42.10
2018-07-30T05:14:36.302Z,42.10
2018-07-30T05:17:04.074Z,42.10
2018-07-30T05:19:31.744Z,42.10
2018-07-30T05:21:59.462Z,42.10
2018-07-30T05:24:27.472Z,42.10
2018-07-30T05:39:14.093Z,42.40
2018-07-30T05:44:09.718Z,42.50
2018-07-30T05:46:37.356Z,42.60
2018-07-30T05:49:05.044Z,42.60
2018-07-30T05:51:32.682Z,42.70
2018-07-30T05:54:00.414Z,42.70
2018-07-30T05:56:28.009Z,42.80
2018-07-30T05:58:55.966Z,42.80
2018-07-30T06:01:23.570Z,42.90
2018-07-30T06:03:51.247Z,42.90
2018-07-30T06:06:19.062Z,42.90
2018-07-30T06:08:46.477Z,42.90
2018-07-30T06:11:14.077Z,42.80
2018-07-30T06:13:41.941Z,42.70
2018-07-30T06:21:04.977Z,42.80
2018-07-30T06:23:32.513Z,42.70
2018-07-30T06:26:00.131Z,42.70
2018-07-30T06:28:28.070Z,42.70
2018-07-30T06:30:55.672Z,42.70
2018-07-30T06:33:23.292Z,42.80
2018-07-30T06:35:51.170Z,43.10
2018-07-30T06:38:18.842Z,43.40
2018-07-30T06:40:46.515Z,43.90
2018-07-30T06:43:14.185Z,44.20
2018-07-30T06:45:41.773Z,44.30
2018-07-30T06:48:09.458Z,44.00
2018-07-30T06:50:37.084Z,43.50
2018-07-30T06:53:04.742Z,43.00
2018-07-30T06:55:32.598Z,42.40
2018-07-30T06:58:00.487Z,41.70
2018-07-30T07:00:28.076Z,40.80
2018-07-30T07:02:55.600Z,39.70
2018-07-30T07:05:23.258Z,38.90
2018-07-30T07:07:50.800Z,38.30
2018-07-30T07:10:18.408Z,38.40
2018-07-30T07:12:46.162Z,37.10
2018-07-30T07:15:20.583Z,36.30
2018-07-30T07:17:48.261Z,35.40
2018-07-30T07:20:15.836Z,34.50
2018-07-30T07:22:43.685Z,33.90
2018-07-30T07:25:11.293Z,33.40
2018-07-30T07:27:38.889Z,32.90
2018-07-30T07:30:08.317Z,32.30
2018-07-30T07:32:35.925Z,31.90
2018-07-30T07:35:03.951Z,31.50
2018-07-30T07:37:31.809Z,31.00
2018-07-30T07:39:59.360Z,30.60
2018-07-30T07:42:27.057Z,30.00
2018-07-30T07:44:55.037Z,29.70
2018-07-30T07:47:22.593Z,29.20
2018-07-30T07:49:50.188Z,28.80
2018-07-30T07:54:45.692Z,28.10
2018-07-30T07:57:13.262Z,27.80
2018-07-30T07:59:40.957Z,27.40
2018-07-30T08:02:08.627Z,27.10
2018-07-30T08:07:04.215Z,26.20
2018-07-30T08:09:31.861Z,26.30
2018-07-30T08:11:59.697Z,26.00
2018-07-30T08:16:55.612Z,25.60
2018-07-30T08:19:23.201Z,25.20
2018-07-30T08:21:50.835Z,25.00
2018-07-30T08:24:18.449Z,24.70
2018-07-30T08:29:13.945Z,24.20
2018-07-30T08:31:41.531Z,23.90
2018-07-30T08:34:09.193Z,23.60
2018-07-30T08:36:37.073Z,23.30
2018-07-30T08:39:08.771Z,23.00
2018-07-30T08:41:36.722Z,22.70
2018-07-30T08:46:32.546Z,22.20
2018-07-30T08:49:00.429Z,21.80
2018-07-30T08:51:28.063Z,21.50
2018-07-30T08:53:55.913Z,21.30
2018-07-30T08:56:23.804Z,21.20
2018-07-30T08:58:51.541Z,21.30
2018-07-30T09:01:19.144Z,20.90
2018-07-30T09:03:46.976Z,20.60
2018-07-30T09:08:42.224Z,20.70
2018-07-30T09:11:10.041Z,20.60
2018-07-30T09:13:37.817Z,20.40
2018-07-30T09:18:33.242Z,20.20
2018-07-30T09:21:00.846Z,20.20
2018-07-30T09:23:28.884Z,20.20
2018-07-30T09:25:56.516Z,20.30
2018-07-30T09:28:24.091Z,20.10
2018-07-30T09:30:51.832Z,20.00
2018-07-30T09:33:19.500Z,19.80
2018-07-30T09:35:47.442Z,19.80
2018-07-30T09:40:42.694Z,19.70
2018-07-30T09:43:10.629Z,19.70
2018-07-30T09:45:38.210Z,19.40
2018-07-30T09:53:04.729Z,18.70
2018-07-30T09:55:32.362Z,18.60
2018-07-30T09:58:00.353Z,18.50
2018-07-30T10:00:33.994Z,18.60
2018-07-30T10:03:02.257Z,18.60
2018-07-30T10:05:29.853Z,18.60
2018-07-30T10:07:57.861Z,18.50
2018-07-30T10:12:53.172Z,18.60
2018-07-30T10:15:20.537Z,18.50
2018-07-30T10:17:48.359Z,18.30
2018-07-30T10:20:16.105Z,18.20
2018-07-30T10:22:43.716Z,18.60
2018-07-30T10:25:11.997Z,18.00
2018-07-30T10:27:39.645Z,17.90
2018-07-30T10:30:07.789Z,17.90
2018-07-30T10:32:35.437Z,18.00
2018-07-30T10:35:03.120Z,18.00
2018-07-30T10:42:27.011Z,17.80
2018-07-30T10:44:54.640Z,17.70
2018-07-30T10:47:22.266Z,17.60
2018-07-30T10:52:17.754Z,17.50
2018-07-30T10:54:45.524Z,17.40
2018-07-30T10:57:13.360Z,17.20
2018-07-30T11:02:08.660Z,17.40
2018-07-30T11:04:38.924Z,17.50
2018-07-30T11:07:06.733Z,17.70
2018-07-30T11:09:34.414Z,17.90
2018-07-30T11:12:02.841Z,18.00
2018-07-30T11:19:33.198Z,18.30
2018-07-30T11:22:00.831Z,18.90
2018-07-30T11:24:28.430Z,18.90
2018-07-30T11:26:56.045Z,19.00
2018-07-30T11:29:23.746Z,19.00
2018-07-30T11:31:51.309Z,18.90
2018-07-30T11:34:18.948Z,18.70
2018-07-30T11:36:47.025Z,18.40
2018-07-30T11:39:14.705Z,18.30
2018-07-30T11:41:42.345Z,18.20
2018-07-30T11:44:10.062Z,18.30
2018-07-30T11:46:37.953Z,18.30
2018-07-30T11:49:05.614Z,18.50
2018-07-30T11:51:33.324Z,18.50
2018-07-30T11:54:01.471Z,18.70
2018-07-30T11:56:29.348Z,18.90
2018-07-30T12:01:25.429Z,19.40
2018-07-30T12:03:53.802Z,19.60
2018-07-30T12:06:22.021Z,19.90
2018-07-30T12:08:49.944Z,20.20
2018-07-30T12:11:17.849Z,20.50
2018-07-30T12:13:45.612Z,20.80
2018-07-30T12:16:12.962Z,21.10
2018-07-30T12:18:40.600Z,21.20
2018-07-30T12:23:36.082Z,21.20
2018-07-30T12:26:03.764Z,21.30
2018-07-30T12:28:31.369Z,21.40
2018-07-30T12:33:26.777Z,21.40
2018-07-30T12:35:54.824Z,21.40
2018-07-30T12:38:22.430Z,21.30
2018-07-30T12:40:50.113Z,21.30
2018-07-30T12:43:17.762Z,21.20
2018-07-30T12:45:46.640Z,21.00
2018-07-30T12:48:14.713Z,21.00
2018-07-30T12:50:42.340Z,20.90
2018-07-30T12:53:10.180Z,20.80
2018-07-30T12:55:38.017Z,20.70
2018-07-30T12:58:06.155Z,20.50
2018-07-30T13:00:33.956Z,20.40
2018-07-30T13:03:01.921Z,20.70
2018-07-30T13:05:29.488Z,20.20
2018-07-30T13:07:57.240Z,20.10
2018-07-30T13:10:24.828Z,20.00
2018-07-30T13:12:52.656Z,20.00
2018-07-30T13:15:20.381Z,20.00
2018-07-30T13:17:48.642Z,19.90
2018-07-30T13:20:16.273Z,19.70
2018-07-30T13:22:44.372Z,19.70
2018-07-30T13:25:11.945Z,19.60
2018-07-30T13:27:39.556Z,19.60
2018-07-30T13:30:08.481Z,19.60
2018-07-30T13:32:36.323Z,19.40
2018-07-30T13:35:04.857Z,19.40
2018-07-30T13:37:32.700Z,19.30
2018-07-30T13:42:28.094Z,19.10
2018-07-30T13:44:56.117Z,19.20
2018-07-30T13:49:51.679Z,19.20
2018-07-30T13:52:19.727Z,19.20
2018-07-30T13:59:42.749Z,19.40
2018-07-30T14:02:10.330Z,19.50
2018-07-30T14:04:37.908Z,19.60
2018-07-30T14:07:05.727Z,19.70
2018-07-30T14:12:01.061Z,20.00
2018-07-30T14:14:28.732Z,20.10
2018-07-30T14:19:24.645Z,20.30
2018-07-30T14:21:52.469Z,20.80
2018-07-30T14:24:20.128Z,20.30
2018-07-30T14:26:47.798Z,20.50
2018-07-30T14:31:44.298Z,20.90
2018-07-30T14:34:12.138Z,21.00
2018-07-30T14:36:39.848Z,21.00
2018-07-30T14:39:09.024Z,21.00
2018-07-30T14:41:37.061Z,21.00
2018-07-30T14:44:04.861Z,21.00
2018-07-30T14:46:32.849Z,21.00
2018-07-30T14:51:29.329Z,21.10
2018-07-30T14:56:25.904Z,21.50
2018-07-30T15:01:21.319Z,21.60
2018-07-30T15:03:48.964Z,21.70
2018-07-30T15:06:16.874Z,21.70
2018-07-30T15:08:44.602Z,21.70
2018-07-30T15:11:12.313Z,21.60
2018-07-30T15:16:07.828Z,21.50
2018-07-30T15:18:35.444Z,21.60
2018-07-30T15:21:03.716Z,21.70
2018-07-30T15:23:31.344Z,21.80
2018-07-30T15:25:59.142Z,21.90
2018-07-30T15:50:25.984Z,22.20
2018-07-30T16:05:07.549Z,22.70
2018-07-30T16:07:35.188Z,22.80
2018-07-30T16:12:30.762Z,23.00
2018-07-30T16:14:59.424Z,23.10
2018-07-30T16:17:27.107Z,23.10
2018-07-30T16:19:54.789Z,23.20
2018-07-30T16:22:22.447Z,23.20
2018-07-30T16:24:50.390Z,23.10
2018-07-30T16:27:18.034Z,23.10
2018-07-30T16:29:45.666Z,23.10
2018-07-30T16:32:13.312Z,23.00
2018-07-30T16:34:40.941Z,23.10
2018-07-30T16:37:08.590Z,23.10
2018-07-30T16:39:36.401Z,23.20
2018-07-30T16:42:04.337Z,23.30
2018-07-30T16:44:32.219Z,23.40
2018-07-30T16:46:59.928Z,23.40
2018-07-30T16:49:27.594Z,23.40
2018-07-30T16:51:55.320Z,23.40
2018-07-30T16:54:23.002Z,23.40
2018-07-30T16:56:50.624Z,23.40
2018-07-30T16:59:18.254Z,23.40
2018-07-30T17:01:47.026Z,23.40
2018-07-30T17:04:14.637Z,23.50
2018-07-30T17:06:42.341Z,23.40
2018-07-30T17:09:41.863Z,23.40
2018-07-30T17:12:10.000Z,23.40
2018-07-30T17:14:37.805Z,23.40
2018-07-30T17:17:05.788Z,23.40
2018-07-30T17:19:33.434Z,23.40
2018-07-30T17:22:01.440Z,23.40
2018-07-30T17:24:29.519Z,23.40
2018-07-30T17:26:57.140Z,23.40
2018-07-30T17:29:24.856Z,23.40
2018-07-30T17:31:52.823Z,23.50
2018-07-30T17:34:20.506Z,23.40
2018-07-30T17:36:48.174Z,23.50
2018-07-30T17:39:15.944Z,23.50
2018-07-30T17:41:43.615Z,23.50
2018-07-30T17:44:11.306Z,23.60
2018-07-30T17:46:38.914Z,23.60
2018-07-30T17:49:06.641Z,23.60
2018-07-30T17:51:34.505Z,23.70
2018-07-30T17:54:02.173Z,23.70
2018-07-30T17:56:31.712Z,23.70
2018-07-30T17:59:00.928Z,23.70
2018-07-30T18:01:28.580Z,23.70
2018-07-30T18:03:56.208Z,23.70
2018-07-30T18:06:24.003Z,23.80
2018-07-30T18:13:47.455Z,24.00
2018-07-30T18:16:15.117Z,24.10
2018-07-30T18:18:43.161Z,24.10
2018-07-30T18:26:07.047Z,24.20
2018-07-30T18:30:54.336Z,24.10
2018-07-30T18:35:49.845Z,24.30
2018-07-30T18:38:17.773Z,24.30
2018-07-30T18:40:45.469Z,24.40
2018-07-30T18:43:13.040Z,24.40
2018-07-30T18:45:41.071Z,24.50
2018-07-30T18:48:08.731Z,24.50
2018-07-30T18:50:36.204Z,24.60
2018-07-30T18:53:03.901Z,24.70
2018-07-30T18:55:31.490Z,24.70
2018-07-30T18:57:59.116Z,24.70
2018-07-30T19:00:26.876Z,24.80
2018-07-30T19:02:54.599Z,24.90
2018-07-30T19:07:50.404Z,25.00
2018-07-30T19:10:18.036Z,25.00
2018-07-30T19:15:13.399Z,25.10
2018-07-30T19:17:41.056Z,25.20
2018-07-30T19:20:08.754Z,25.20
2018-07-30T19:22:36.440Z,25.30
2018-07-30T19:25:04.433Z,25.30
2018-07-30T19:30:00.310Z,25.50
2018-07-30T19:32:28.054Z,25.60
2018-07-30T19:37:23.376Z,25.60
2018-07-30T19:39:50.986Z,25.70
2018-07-30T19:42:20.080Z,25.80
2018-07-30T19:44:47.693Z,25.90
2018-07-30T19:47:15.279Z,26.00
2018-07-30T19:49:43.200Z,26.00
2018-07-30T19:52:10.940Z,26.10
2018-07-30T19:54:38.615Z,26.10
2018-07-30T19:57:06.488Z,26.30
2018-07-30T19:59:34.183Z,26.80
2018-07-30T20:02:02.345Z,26.40
2018-07-30T20:04:30.072Z,26.50
2018-07-30T20:06:57.844Z,26.60
2018-07-30T20:09:25.452Z,26.60
2018-07-30T20:11:53.521Z,26.80
2018-07-30T20:14:21.253Z,26.80
2018-07-30T20:16:48.907Z,26.80
2018-07-30T20:19:16.656Z,26.90
2018-07-30T20:21:44.622Z,26.90
2018-07-30T20:24:12.264Z,27.00
2018-07-30T20:26:41.672Z,27.10
2018-07-30T20:29:09.484Z,27.10
2018-07-30T20:31:37.156Z,27.20
2018-07-30T20:34:05.524Z,27.30
2018-07-30T20:36:33.151Z,27.30
2018-07-30T20:39:00.810Z,27.40
2018-07-30T20:41:28.804Z,27.50
2018-07-30T20:43:56.788Z,27.50
2018-07-30T20:46:24.448Z,27.60
2018-07-30T20:48:52.141Z,27.60
2018-07-30T20:51:19.966Z,27.70
2018-07-30T20:53:47.584Z,27.80
2018-07-30T20:56:15.563Z,28.00
2018-07-30T20:58:43.280Z,28.10
2018-07-30T21:01:10.925Z,28.30
2018-07-30T21:03:38.600Z,28.30
2018-07-30T21:06:06.209Z,28.90
2018-07-30T21:08:34.068Z,28.50
2018-07-30T21:11:01.728Z,28.60
2018-07-30T21:13:29.480Z,28.80
2018-07-30T21:15:58.296Z,28.80
2018-07-30T21:18:25.938Z,29.00
2018-07-30T21:20:53.715Z,29.00
2018-07-30T21:23:21.748Z,29.10
2018-07-30T21:25:49.449Z,29.20
2018-07-30T21:28:16.809Z,29.20
2018-07-30T21:30:44.609Z,29.30
2018-07-30T21:33:12.280Z,29.40
2018-07-30T21:35:39.922Z,29.50
2018-07-30T21:38:07.781Z,29.60
2018-07-30T21:40:35.484Z,29.70
2018-07-30T21:43:03.326Z,29.70
2018-07-30T21:45:31.425Z,29.70
2018-07-30T21:47:59.056Z,29.80
2018-07-30T21:50:26.717Z,29.90
2018-07-30T21:52:54.733Z,29.90
2018-07-30T21:55:22.408Z,30.00
2018-07-30T21:57:50.174Z,30.00
2018-07-30T22:00:24.492Z,30.10
2018-07-30T22:02:53.749Z,30.20
2018-07-30T22:05:21.713Z,30.30
2018-07-30T22:07:49.419Z,30.40
2018-07-30T22:10:17.123Z,30.50
2018-07-30T22:12:44.902Z,30.60
2018-07-30T22:15:12.635Z,30.80
2018-07-30T22:17:40.341Z,30.90
2018-07-30T22:20:08.106Z,31.10
2018-07-30T22:22:36.841Z,31.10
2018-07-30T22:25:04.680Z,31.20
2018-07-30T22:27:32.569Z,31.30
2018-07-30T22:30:00.972Z,31.40
2018-07-30T22:32:28.854Z,31.60
2018-07-30T22:37:24.440Z,31.90
2018-07-30T22:39:52.149Z,32.00
2018-07-30T22:42:19.828Z,32.00
2018-07-30T22:44:47.465Z,32.10
2018-07-30T22:47:15.236Z,32.20
2018-07-30T22:49:42.878Z,32.30
2018-07-30T22:52:10.564Z,32.50
2018-07-30T22:54:38.328Z,32.60
2018-07-30T22:59:33.781Z,32.80
2018-07-30T23:02:01.516Z,32.80
2018-07-30T23:04:29.268Z,33.10
2018-07-30T23:06:57.356Z,33.10
2018-07-30T23:09:25.016Z,33.30
2018-07-30T23:11:52.682Z,33.40
2018-07-30T23:14:20.522Z,33.50
2018-07-30T23:16:48.212Z,33.60
2018-07-30T23:19:15.918Z,33.70
2018-07-30T23:21:43.885Z,33.80
2018-07-30T23:24:11.594Z,33.90
2018-07-30T23:31:35.202Z,34.30
2018-07-30T23:36:30.862Z,34.50
2018-07-30T23:38:58.577Z,34.50
2018-07-30T23:41:31.559Z,34.70
2018-07-30T23:43:59.314Z,34.60
2018-07-30T23:46:39.269Z,34.70
2018-07-30T23:49:08.701Z,34.80
2018-07-30T23:52:14.536Z,35.50
2018-07-30T23:57:56.145Z,35.40
